Terminal Aerodrome Forecast
Issued by NWS

Home | Current Version | Previous Version | Text Only | Print | Product List | Glossary On
Versions: 1 2 3 4 5 6 7 8 9 10 11 12 13 14 15 16
000
FTUS46 KMTR 271128
TAFSNS
TAF
KSNS 271128Z 2712/2812 25010KT P6SM SCT008 OVC020
     FM271600 27008KT P6SM SCT008 OVC025
     FM271900 29014G19KT P6SM FEW020 SCT250
     FM280200 26014KT P6SM SCT015 SCT250=

USA.gov is the U.S. government's official web portal to all federal, state and local government web resources and services.